createdAt,value
2018-08-06T00:01:18.763Z,4.00
2018-08-06T00:03:50.558Z,5.00
2018-08-06T00:06:21.769Z,5.00
2018-08-06T00:08:52.248Z,4.50
2018-08-06T00:11:25.275Z,6.75
2018-08-06T00:13:58.173Z,5.25
2018-08-06T00:16:28.764Z,6.00
2018-08-06T00:18:59.319Z,5.00
2018-08-06T00:21:31.603Z,5.50
2018-08-06T00:24:03.101Z,6.25
2018-08-06T00:26:34.264Z,6.00
2018-08-06T00:29:07.831Z,5.00
2018-08-06T00:31:41.405Z,4.00
2018-08-06T00:34:12.320Z,5.00
2018-08-06T00:36:42.659Z,6.50
2018-08-06T00:39:13.650Z,6.00
2018-08-06T00:41:44.683Z,6.25
2018-08-06T00:44:15.532Z,6.00
2018-08-06T00:46:46.123Z,6.00
2018-08-06T00:49:17.229Z,7.75
2018-08-06T00:51:48.161Z,6.00
2018-08-06T00:54:20.059Z,7.00
2018-08-06T00:56:50.427Z,5.50
2018-08-06T00:59:21.558Z,8.00
2018-08-06T01:01:52.931Z,6.00
2018-08-06T01:04:23.925Z,7.75
2018-08-06T01:06:55.325Z,7.00
2018-08-06T01:09:25.921Z,7.50
2018-08-06T01:11:56.163Z,7.00
2018-08-06T01:14:26.990Z,7.00
2018-08-06T01:16:58.559Z,6.75
2018-08-06T01:19:29.984Z,6.50
2018-08-06T01:22:01.531Z,6.75
2018-08-06T01:24:32.306Z,7.50
2018-08-06T01:27:03.672Z,8.75
2018-08-06T01:29:35.860Z,7.50
2018-08-06T01:32:07.195Z,8.25
2018-08-06T01:34:37.930Z,7.00
2018-08-06T01:37:08.236Z,8.00
2018-08-06T01:39:39.056Z,7.75
2018-08-06T01:42:09.999Z,8.00
2018-08-06T01:44:40.850Z,7.50
2018-08-06T01:47:12.304Z,8.00
2018-08-06T01:49:43.638Z,8.00
2018-08-06T01:52:14.254Z,8.50
2018-08-06T01:54:45.056Z,8.00
2018-08-06T01:57:15.787Z,7.00
2018-08-06T01:59:48.887Z,8.00
2018-08-06T02:02:20.209Z,8.25
2018-08-06T02:04:51.431Z,8.00
2018-08-06T02:07:21.810Z,8.00
2018-08-06T02:09:52.036Z,7.25
2018-08-06T02:12:22.206Z,8.50
2018-08-06T02:14:53.344Z,7.00
2018-08-06T02:17:24.372Z,9.50
2018-08-06T02:19:55.796Z,8.00
2018-08-06T02:22:26.196Z,8.75
2018-08-06T02:24:56.440Z,7.00
2018-08-06T02:27:26.681Z,7.25
2018-08-06T02:29:57.345Z,9.25
2018-08-06T02:32:29.970Z,9.00
2018-08-06T02:35:00.423Z,8.00
2018-08-06T02:37:31.744Z,8.00
2018-08-06T02:40:04.179Z,7.50
2018-08-06T02:42:35.112Z,8.75
2018-08-06T02:45:08.146Z,7.50
2018-08-06T02:47:38.875Z,6.75
2018-08-06T02:50:10.360Z,8.25
2018-08-06T02:52:41.720Z,8.25
2018-08-06T02:55:14.341Z,8.00
2018-08-06T02:57:44.468Z,9.00
2018-08-06T03:00:17.977Z,7.50
2018-08-06T03:02:48.684Z,7.50
2018-08-06T03:05:19.926Z,9.00
2018-08-06T03:07:50.696Z,7.00
2018-08-06T03:10:21.091Z,8.75
2018-08-06T03:12:51.982Z,7.25
2018-08-06T03:15:22.325Z,8.50
2018-08-06T03:17:52.457Z,8.00
2018-08-06T03:20:22.860Z,9.00
2018-08-06T03:22:52.994Z,9.25
2018-08-06T03:25:23.784Z,8.50
2018-08-06T03:27:54.200Z,9.00
2018-08-06T03:30:25.949Z,9.00
2018-08-06T03:32:56.169Z,9.00
2018-08-06T03:35:26.687Z,8.75
2018-08-06T03:37:57.352Z,9.00
2018-08-06T03:40:28.041Z,9.00
2018-08-06T03:42:58.729Z,8.00
2018-08-06T03:45:30.233Z,8.00
2018-08-06T03:48:00.367Z,7.75
2018-08-06T03:50:30.885Z,8.00
2018-08-06T03:53:01.417Z,8.00
2018-08-06T03:55:31.823Z,8.00
2018-08-06T03:58:02.610Z,9.00
2018-08-06T04:00:33.040Z,9.25
2018-08-06T04:03:04.106Z,9.00
2018-08-06T04:05:34.680Z,10.75
2018-08-06T04:08:05.059Z,9.50
2018-08-06T04:10:35.309Z,9.75
2018-08-06T04:13:05.521Z,8.75
2018-08-06T04:15:35.808Z,9.75
2018-08-06T04:18:06.429Z,10.00
2018-08-06T04:20:47.893Z,8.00
2018-08-06T04:23:18.184Z,9.00
2018-08-06T04:25:48.601Z,8.75
2018-08-06T04:28:20.204Z,7.50
2018-08-06T04:30:50.994Z,8.75
2018-08-06T04:33:21.081Z,8.00
2018-08-06T04:35:51.846Z,9.00
2018-08-06T04:38:33.145Z,8.75
2018-08-06T04:41:03.923Z,8.75
2018-08-06T04:43:33.997Z,10.00
2018-08-06T04:46:04.840Z,9.75
2018-08-06T04:48:35.384Z,10.00
2018-08-06T04:51:07.543Z,12.25
2018-08-06T04:53:39.093Z,9.75
2018-08-06T04:56:09.409Z,10.00
2018-08-06T04:58:42.667Z,9.25
2018-08-06T05:01:17.456Z,10.00
2018-08-06T05:03:55.604Z,9.50
2018-08-06T05:06:26.265Z,8.00
2018-08-06T05:08:56.472Z,9.00
2018-08-06T05:11:27.138Z,8.00
2018-08-06T05:13:59.529Z,9.50
2018-08-06T05:16:32.316Z,10.00
2018-08-06T05:19:02.419Z,8.00
2018-08-06T05:21:32.858Z,9.50
2018-08-06T05:24:03.997Z,9.75
2018-08-06T05:26:35.093Z,10.00
2018-08-06T05:29:05.556Z,10.00
2018-08-06T05:31:36.012Z,9.00
2018-08-06T05:34:07.349Z,10.00
2018-08-06T05:36:38.004Z,10.00
2018-08-06T05:39:09.451Z,8.75
2018-08-06T05:41:39.692Z,9.00
2018-08-06T05:44:11.394Z,8.75
2018-08-06T05:46:42.263Z,9.00
2018-08-06T05:49:12.397Z,9.00
2018-08-06T05:51:45.030Z,7.50
2018-08-06T05:54:16.057Z,8.25
2018-08-06T05:56:58.278Z,9.50
2018-08-06T05:59:28.347Z,8.00
2018-08-06T06:01:59.806Z,8.50
2018-08-06T06:04:31.377Z,8.25
2018-08-06T06:07:02.638Z,8.50
2018-08-06T06:09:33.285Z,7.75
2018-08-06T06:12:03.884Z,6.75
2018-08-06T06:14:35.275Z,7.50
2018-08-06T06:17:08.219Z,8.75
2018-08-06T06:19:44.106Z,7.75
2018-08-06T06:22:15.173Z,5.25
2018-08-06T06:24:49.466Z,5.50
2018-08-06T06:27:29.872Z,6.75
2018-08-06T06:30:00.351Z,7.50
2018-08-06T06:32:33.578Z,6.00
2018-08-06T06:35:05.630Z,5.75
2018-08-06T06:37:36.624Z,7.75
2018-08-06T06:40:18.072Z,7.50
2018-08-06T06:42:49.072Z,7.50
2018-08-06T06:45:20.371Z,6.00
2018-08-06T06:47:51.244Z,6.00
2018-08-06T06:50:21.753Z,5.75
2018-08-06T06:55:43.635Z,5.00
2018-08-06T06:58:16.223Z,6.25
2018-08-06T07:00:51.638Z,7.00
2018-08-06T07:03:22.865Z,6.25
2018-08-06T07:05:53.789Z,5.00
2018-08-06T07:08:26.345Z,6.00
2018-08-06T07:10:57.585Z,5.00
2018-08-06T07:13:28.804Z,6.00
2018-08-06T07:16:05.414Z,4.75
2018-08-06T07:18:37.504Z,4.25
2018-08-06T07:21:09.822Z,4.25
2018-08-06T07:23:44.512Z,4.00
2018-08-06T07:26:15.644Z,5.25
2018-08-06T07:28:46.487Z,6.00
2018-08-06T07:31:18.661Z,5.00
2018-08-06T07:33:51.908Z,6.00
2018-08-06T07:36:23.005Z,4.00
2018-08-06T07:38:53.448Z,4.00
2018-08-06T07:41:25.781Z,5.00
2018-08-06T07:43:57.140Z,5.00
2018-08-06T07:46:34.779Z,5.50
2018-08-06T07:49:09.430Z,5.00
2018-08-06T07:51:41.159Z,5.00
2018-08-06T07:54:12.187Z,5.50
2018-08-06T07:56:45.992Z,6.00
2018-08-06T07:59:18.402Z,5.00
2018-08-06T08:01:51.954Z,5.50
2018-08-06T08:04:34.759Z,6.00
2018-08-06T08:07:05.942Z,5.75
2018-08-06T08:09:37.865Z,5.00
2018-08-06T08:12:08.763Z,5.75
2018-08-06T08:14:38.998Z,4.75
2018-08-06T08:17:10.352Z,8.00
2018-08-06T08:19:42.075Z,4.00
2018-08-06T08:22:12.443Z,5.00
2018-08-06T08:24:44.177Z,5.00
2018-08-06T08:27:16.759Z,6.00
2018-08-06T08:29:48.313Z,6.00
2018-08-06T08:32:20.746Z,6.00
2018-08-06T08:34:52.378Z,5.00
2018-08-06T08:37:24.417Z,6.00
2018-08-06T08:39:56.883Z,5.00
2018-08-06T08:42:39.280Z,5.00
2018-08-06T08:45:15.530Z,6.00
2018-08-06T08:47:47.388Z,6.00
2018-08-06T08:50:19.720Z,5.75
2018-08-06T08:52:55.653Z,6.00
2018-08-06T08:55:27.158Z,5.00
2018-08-06T08:58:00.014Z,6.25
2018-08-06T09:00:46.277Z,5.75
2018-08-06T09:03:19.718Z,4.50
2018-08-06T09:05:51.981Z,5.00
2018-08-06T09:08:22.420Z,6.75
2018-08-06T09:10:53.557Z,5.00
2018-08-06T09:13:25.183Z,6.00
2018-08-06T09:15:58.076Z,5.25
2018-08-06T09:18:30.173Z,7.75
2018-08-06T09:21:00.449Z,5.00
2018-08-06T09:23:32.467Z,6.00
2018-08-06T09:26:04.663Z,6.00
2018-08-06T09:28:36.845Z,6.00
2018-08-06T09:31:08.218Z,6.25
2018-08-06T09:33:39.501Z,6.00
2018-08-06T09:36:09.916Z,6.75
2018-08-06T09:38:46.209Z,5.50
2018-08-06T09:41:17.426Z,5.00
2018-08-06T09:43:50.903Z,6.25
2018-08-06T09:46:24.505Z,5.00
2018-08-06T09:48:56.792Z,7.00
2018-08-06T09:51:29.386Z,7.25
2018-08-06T09:54:04.857Z,5.50
2018-08-06T09:56:35.314Z,7.00
2018-08-06T09:59:10.264Z,6.25
2018-08-06T10:01:46.465Z,7.50
2018-08-06T10:04:18.584Z,6.00
2018-08-06T10:06:54.728Z,7.75
2018-08-06T10:09:31.349Z,6.75
2018-08-06T10:12:08.184Z,6.00
2018-08-06T10:14:42.257Z,6.00
2018-08-06T10:17:14.378Z,7.75
2018-08-06T10:19:45.640Z,6.25
2018-08-06T10:22:19.212Z,6.25
2018-08-06T10:24:52.185Z,7.00
2018-08-06T10:27:26.092Z,7.00
2018-08-06T10:29:56.525Z,6.00
2018-08-06T10:32:28.939Z,7.75
2018-08-06T10:35:06.991Z,7.00
2018-08-06T10:37:52.755Z,8.00
2018-08-06T10:40:26.656Z,6.00
2018-08-06T10:42:58.440Z,6.75
2018-08-06T10:45:31.116Z,8.25
2018-08-06T10:48:03.594Z,7.00
2018-08-06T10:50:38.187Z,7.00
2018-08-06T10:53:09.594Z,7.50
2018-08-06T10:55:41.794Z,7.00
2018-08-06T10:58:14.773Z,6.00
2018-08-06T11:00:45.464Z,7.00
2018-08-06T11:03:16.486Z,7.00
2018-08-06T11:05:48.769Z,7.00
2018-08-06T11:08:22.584Z,6.25
2018-08-06T11:10:58.803Z,9.75
2018-08-06T11:13:32.839Z,7.00
2018-08-06T11:16:11.546Z,7.50
2018-08-06T11:18:44.130Z,6.50
2018-08-06T11:21:16.711Z,6.75
2018-08-06T11:23:48.936Z,7.00
2018-08-06T11:26:23.269Z,7.50
2018-08-06T11:28:56.648Z,6.00
2018-08-06T11:31:35.206Z,6.25
2018-08-06T11:34:08.614Z,8.00
2018-08-06T11:36:40.512Z,6.75
2018-08-06T11:39:13.208Z,7.50
2018-08-06T11:41:46.468Z,7.50
2018-08-06T11:44:19.283Z,7.00
2018-08-06T11:46:50.489Z,6.00
2018-08-06T11:49:21.471Z,7.00
2018-08-06T11:51:52.320Z,7.75
2018-08-06T11:54:24.677Z,8.00
2018-08-06T11:56:55.066Z,7.00
2018-08-06T11:59:33.313Z,7.00
2018-08-06T12:02:22.753Z,7.25
2018-08-06T12:04:57.014Z,6.50
2018-08-06T12:07:30.010Z,7.25
2018-08-06T12:10:11.425Z,6.75
2018-08-06T12:12:45.030Z,6.50
2018-08-06T12:15:20.455Z,7.00
2018-08-06T12:17:56.902Z,8.00
2018-08-06T12:20:29.061Z,6.25
2018-08-06T12:23:02.310Z,7.00
2018-08-06T12:25:34.114Z,7.25
2018-08-06T12:28:08.543Z,8.00
2018-08-06T12:30:40.661Z,7.00
2018-08-06T12:33:12.432Z,6.00
2018-08-06T12:35:49.358Z,7.00
2018-08-06T12:38:38.620Z,6.50
2018-08-06T12:41:33.169Z,7.00
2018-08-06T12:44:13.277Z,6.25
2018-08-06T12:46:46.246Z,7.75
2018-08-06T12:49:20.791Z,7.00
2018-08-06T12:51:58.599Z,6.00
2018-08-06T12:54:32.311Z,7.00
2018-08-06T12:57:04.015Z,6.75
2018-08-06T12:59:35.477Z,6.00
2018-08-06T13:02:06.086Z,5.00
2018-08-06T13:04:38.367Z,6.50
2018-08-06T13:07:09.643Z,7.00
2018-08-06T13:09:42.648Z,7.00
2018-08-06T13:12:19.693Z,6.25
2018-08-06T13:14:50.883Z,7.00
2018-08-06T13:17:31.962Z,5.50
2018-08-06T13:20:03.375Z,6.00
2018-08-06T13:22:42.609Z,7.75
2018-08-06T13:25:27.743Z,6.00
2018-08-06T13:27:59.966Z,6.00
2018-08-06T13:30:35.040Z,6.00
2018-08-06T13:33:08.714Z,6.75
2018-08-06T13:35:43.349Z,6.00
2018-08-06T13:38:15.044Z,6.75
2018-08-06T13:40:52.002Z,7.00
2018-08-06T13:43:28.738Z,7.00
2018-08-06T13:46:05.879Z,6.75
2018-08-06T13:48:46.326Z,6.00
2018-08-06T13:51:24.796Z,7.00
2018-08-06T13:54:01.958Z,6.00
2018-08-06T13:56:33.160Z,6.00
2018-08-06T13:59:06.146Z,6.00
2018-08-06T14:01:40.406Z,7.00
2018-08-06T14:04:14.738Z,6.00
2018-08-06T14:06:45.308Z,5.75
2018-08-06T14:09:18.837Z,7.00
2018-08-06T14:14:25.764Z,4.75
2018-08-06T14:16:59.432Z,6.50
2018-08-06T14:19:44.493Z,5.75
2018-08-06T14:24:57.954Z,7.00
2018-08-06T14:27:32.392Z,6.75
2018-08-06T14:30:06.815Z,6.00
2018-08-06T14:32:41.680Z,6.75
2018-08-06T14:35:15.426Z,6.25
2018-08-06T14:37:51.483Z,6.00
2018-08-06T14:40:28.280Z,6.25
2018-08-06T14:43:02.754Z,7.00
2018-08-06T14:45:37.571Z,8.00
2018-08-06T14:48:07.941Z,7.25
2018-08-06T14:50:42.482Z,5.75
2018-08-06T14:53:12.736Z,6.00
2018-08-06T14:55:49.738Z,7.00
2018-08-06T14:58:22.306Z,7.25
2018-08-06T15:00:54.703Z,7.00
2018-08-06T15:03:32.765Z,6.00
2018-08-06T15:06:04.819Z,7.25
2018-08-06T15:08:37.266Z,6.25
2018-08-06T15:11:18.132Z,6.50
2018-08-06T15:13:52.193Z,6.75
2018-08-06T15:16:23.836Z,7.00
2018-08-06T15:18:58.105Z,7.00
2018-08-06T15:21:33.425Z,6.00
2018-08-06T15:24:07.697Z,6.25
2018-08-06T15:26:38.478Z,6.00
2018-08-06T15:29:13.169Z,7.00
2018-08-06T15:31:44.528Z,8.00
2018-08-06T15:34:16.033Z,6.50
2018-08-06T15:36:49.079Z,7.00
2018-08-06T15:41:57.047Z,7.00
2018-08-06T15:44:27.561Z,6.75
2018-08-06T15:47:02.161Z,8.00
2018-08-06T15:49:38.149Z,7.00
2018-08-06T15:52:14.070Z,8.00
2018-08-06T15:54:49.445Z,6.50
2018-08-06T15:57:22.886Z,7.00
2018-08-06T15:59:55.831Z,6.25
2018-08-06T16:02:29.152Z,7.00
2018-08-06T16:05:00.157Z,7.00
2018-08-06T16:07:30.628Z,6.00
2018-08-06T16:10:06.501Z,7.75
2018-08-06T16:12:37.283Z,6.00
2018-08-06T16:15:19.903Z,7.00
2018-08-06T16:17:59.642Z,8.00
2018-08-06T16:20:32.841Z,6.00
2018-08-06T16:23:03.881Z,6.00
2018-08-06T16:25:34.468Z,7.25
2018-08-06T16:28:06.693Z,7.25
2018-08-06T16:30:38.409Z,7.50
2018-08-06T16:33:09.600Z,7.00
2018-08-06T16:35:42.416Z,7.00
2018-08-06T16:38:16.408Z,7.00
2018-08-06T16:40:48.649Z,8.25
2018-08-06T16:43:20.574Z,6.75
2018-08-06T16:45:51.640Z,8.00
2018-08-06T16:48:26.637Z,7.00
2018-08-06T16:53:46.269Z,6.25
2018-08-06T16:56:18.948Z,7.50
2018-08-06T16:58:49.679Z,7.50
2018-08-06T17:01:21.806Z,6.75
2018-08-06T17:03:53.503Z,7.25
2018-08-06T17:06:26.403Z,7.75
2018-08-06T17:09:14.569Z,6.00
2018-08-06T17:12:03.494Z,7.50
2018-08-06T17:14:35.348Z,7.25
2018-08-06T17:17:09.898Z,8.50
2018-08-06T17:19:47.299Z,7.00
2018-08-06T17:22:27.611Z,8.00
2018-08-06T17:25:00.360Z,6.75
2018-08-06T17:32:59.731Z,7.25
2018-08-06T17:35:33.054Z,7.50
2018-08-06T17:38:05.999Z,8.00
2018-08-06T17:40:39.078Z,7.00
2018-08-06T17:43:11.268Z,7.00
2018-08-06T17:45:42.198Z,7.00
2018-08-06T17:48:16.736Z,8.00
2018-08-06T17:53:01.813Z,7.25
2018-08-06T17:55:34.199Z,8.00
2018-08-06T17:58:07.922Z,7.00
2018-08-06T18:00:41.778Z,7.50
2018-08-06T18:03:16.542Z,7.50
2018-08-06T18:05:51.288Z,8.00
2018-08-06T18:08:24.922Z,7.00
2018-08-06T18:10:56.646Z,9.00
2018-08-06T18:13:36.691Z,8.50
2018-08-06T18:18:49.664Z,7.00
2018-08-06T18:21:22.996Z,7.25
2018-08-06T18:23:55.310Z,7.00
2018-08-06T18:26:28.406Z,8.25
2018-08-06T18:29:10.498Z,8.25
2018-08-06T18:31:41.122Z,7.25
2018-08-06T18:34:11.807Z,7.75
2018-08-06T18:36:44.568Z,7.00
2018-08-06T18:39:14.755Z,7.50
2018-08-06T18:41:45.250Z,8.50
2018-08-06T18:44:15.480Z,7.00
2018-08-06T18:46:52.153Z,7.00
2018-08-06T18:49:31.944Z,6.25
2018-08-06T18:52:03.211Z,7.25
2018-08-06T18:54:36.014Z,9.00
2018-08-06T18:57:08.464Z,8.00
2018-08-06T18:59:49.867Z,8.25
2018-08-06T19:02:21.194Z,8.00
2018-08-06T19:04:52.734Z,8.00
2018-08-06T19:07:27.619Z,9.00
2018-08-06T19:09:59.424Z,8.50
2018-08-06T19:12:35.612Z,7.75
2018-08-06T19:15:10.223Z,6.75
2018-08-06T19:17:49.282Z,8.00
2018-08-06T19:20:23.435Z,8.00
2018-08-06T19:22:54.278Z,9.25
2018-08-06T19:25:30.244Z,9.75
2018-08-06T19:28:02.825Z,8.25
2018-08-06T19:30:38.296Z,10.25
2018-08-06T19:33:10.580Z,10.00
2018-08-06T19:35:41.958Z,10.00
2018-08-06T19:38:14.294Z,9.00
2018-08-06T19:40:44.982Z,10.50
2018-08-06T19:43:20.275Z,9.00
2018-08-06T19:45:54.003Z,11.00
2018-08-06T19:48:25.537Z,11.50
2018-08-06T19:51:01.414Z,12.00
2018-08-06T19:53:33.049Z,10.75
2018-08-06T19:56:09.189Z,10.50
2018-08-06T19:58:42.622Z,11.25
2018-08-06T20:01:15.732Z,10.00
2018-08-06T20:03:49.917Z,9.00
2018-08-06T20:06:20.910Z,10.00
2018-08-06T20:08:52.928Z,9.00
2018-08-06T20:11:25.712Z,11.00
2018-08-06T20:13:56.969Z,9.25
2018-08-06T20:16:28.644Z,10.25
2018-08-06T20:19:03.385Z,9.25
2018-08-06T20:21:40.485Z,8.00
2018-08-06T20:24:14.495Z,10.50
2018-08-06T20:26:45.924Z,11.00
2018-08-06T20:29:17.869Z,9.25
2018-08-06T20:31:48.266Z,9.50
2018-08-06T20:34:20.042Z,8.75
2018-08-06T20:36:52.608Z,9.75
2018-08-06T20:39:24.688Z,10.00
2018-08-06T20:41:55.280Z,10.75
2018-08-06T20:44:25.753Z,8.50
2018-08-06T20:46:57.458Z,9.75
2018-08-06T20:49:27.775Z,8.25
2018-08-06T20:52:00.386Z,9.75
2018-08-06T20:54:34.402Z,10.00
2018-08-06T20:57:05.419Z,10.75
2018-08-06T20:59:36.579Z,10.00
2018-08-06T21:02:08.717Z,9.00
2018-08-06T21:04:44.365Z,9.00
2018-08-06T21:07:15.064Z,9.00
2018-08-06T21:09:48.246Z,9.00
2018-08-06T21:12:19.578Z,11.00
2018-08-06T21:14:50.256Z,9.00
2018-08-06T21:17:22.732Z,10.50
2018-08-06T21:19:57.572Z,11.00
2018-08-06T21:22:30.615Z,11.75
2018-08-06T21:25:07.233Z,10.50
2018-08-06T21:27:41.557Z,9.50
2018-08-06T21:30:19.749Z,10.25
2018-08-06T21:32:54.219Z,9.75
2018-08-06T21:35:27.189Z,8.00
2018-08-06T21:38:01.829Z,9.75
2018-08-06T21:40:32.332Z,8.50
2018-08-06T21:43:02.487Z,9.50
2018-08-06T21:45:33.013Z,8.50
2018-08-06T21:48:03.821Z,9.00
2018-08-06T21:50:34.223Z,9.25
2018-08-06T21:53:04.456Z,8.50
2018-08-06T21:55:35.083Z,10.00
2018-08-06T21:58:05.819Z,8.75
2018-08-06T22:00:38.331Z,9.25
2018-08-06T22:03:19.889Z,8.25
2018-08-06T22:05:55.095Z,9.00
2018-08-06T22:08:26.331Z,8.75
2018-08-06T22:11:00.271Z,9.00
2018-08-06T22:13:31.216Z,9.00
2018-08-06T22:16:03.342Z,10.00
2018-08-06T22:18:34.025Z,9.00
2018-08-06T22:21:05.254Z,9.00
2018-08-06T22:29:39.662Z,10.25
2018-08-06T22:32:14.857Z,9.75
2018-08-06T22:34:46.679Z,10.00
2018-08-06T22:37:18.480Z,10.50
2018-08-06T22:39:50.120Z,9.25
2018-08-06T22:42:20.515Z,9.25
2018-08-06T22:44:51.432Z,9.75
2018-08-06T22:47:23.043Z,9.25
2018-08-06T22:49:55.656Z,10.25
2018-08-06T22:52:26.723Z,8.00
2018-08-06T22:54:58.261Z,10.00
2018-08-06T22:57:29.569Z,8.25
2018-08-06T23:00:00.929Z,8.00
2018-08-06T23:02:34.034Z,10.25
2018-08-06T23:05:05.831Z,9.00
2018-08-06T23:07:37.321Z,9.00
2018-08-06T23:10:11.254Z,9.00
2018-08-06T23:12:42.662Z,8.00
2018-08-06T23:15:16.918Z,8.00
2018-08-06T23:17:48.775Z,10.00
2018-08-06T23:20:19.016Z,10.50
2018-08-06T23:22:52.007Z,8.00
2018-08-06T23:25:27.456Z,8.00
2018-08-06T23:27:58.721Z,9.50
2018-08-06T23:30:29.601Z,8.00
2018-08-06T23:32:59.795Z,8.75
2018-08-06T23:35:29.964Z,9.00
2018-08-06T23:38:01.255Z,9.00
2018-08-06T23:40:31.511Z,7.25
2018-08-06T23:43:01.952Z,10.00
2018-08-06T23:45:32.426Z,9.00
2018-08-06T23:48:04.830Z,10.25
2018-08-06T23:50:35.201Z,8.25
2018-08-06T23:53:06.536Z,9.00
2018-08-06T23:55:36.675Z,8.75
2018-08-06T23:58:07.345Z,8.75
